createdAt,value
2018-11-28T00:00:56.164Z,66.67
2018-11-28T00:03:23.684Z,66.41
2018-11-28T00:05:51.147Z,66.28
2018-11-28T00:08:18.628Z,66.69
2018-11-28T00:10:46.191Z,66.10
2018-11-28T00:13:13.682Z,66.13
2018-11-28T00:15:41.181Z,66.42
2018-11-28T00:18:08.690Z,66.58
2018-11-28T00:20:36.203Z,66.64
2018-11-28T00:23:03.819Z,66.35
2018-11-28T00:25:31.366Z,66.31
2018-11-28T00:27:58.866Z,66.14
2018-11-28T00:30:26.398Z,66.50
2018-11-28T00:32:54.006Z,66.48
2018-11-28T00:35:22.482Z,66.31
2018-11-28T00:38:20.724Z,66.41
2018-11-28T00:40:48.186Z,66.02
2018-11-28T00:43:15.659Z,66.27
2018-11-28T00:45:43.187Z,66.79
2018-11-28T00:48:10.683Z,66.50
2018-11-28T00:50:38.163Z,66.38
2018-11-28T00:53:06.160Z,66.19
2018-11-28T00:55:33.773Z,66.78
2018-11-28T00:58:01.272Z,66.70
2018-11-28T01:00:28.734Z,66.64
2018-11-28T01:02:56.251Z,66.64
2018-11-28T01:05:23.776Z,66.25
2018-11-28T01:07:52.264Z,66.38
2018-11-28T01:10:20.786Z,66.24
2018-11-28T01:12:48.826Z,66.02
2018-11-28T01:15:17.165Z,66.61
2018-11-28T01:17:44.745Z,66.46
2018-11-28T01:20:14.371Z,66.01
2018-11-28T01:22:41.928Z,66.08
2018-11-28T01:25:12.265Z,66.71
2018-11-28T01:27:39.985Z,66.04
2018-11-28T01:30:10.598Z,66.03
2018-11-28T01:32:38.120Z,66.22
2018-11-28T01:35:07.331Z,66.40
2018-11-28T01:37:34.852Z,66.19
2018-11-28T01:40:02.939Z,66.19
2018-11-28T01:42:30.446Z,66.52
2018-11-28T01:44:57.979Z,66.56
2018-11-28T01:47:25.472Z,66.73
2018-11-28T01:49:52.979Z,66.85
2018-11-28T01:52:20.492Z,66.84
2018-11-28T01:54:48.006Z,66.73
2018-11-28T01:57:15.504Z,66.77
2018-11-28T01:59:43.007Z,66.41
2018-11-28T02:02:10.657Z,66.97
2018-11-28T02:04:38.248Z,66.86
2018-11-28T02:07:06.237Z,66.62
2018-11-28T02:09:33.852Z,67.21
2018-11-28T02:12:01.400Z,67.05
2018-11-28T02:14:28.831Z,66.47
2018-11-28T02:16:56.305Z,66.96
2018-11-28T02:19:23.940Z,66.50
2018-11-28T02:21:51.504Z,66.64
2018-11-28T02:24:18.994Z,66.45
2018-11-28T02:26:46.508Z,66.52
2018-11-28T02:29:14.007Z,66.64
2018-11-28T02:31:41.494Z,66.84
2018-11-28T02:34:09.030Z,66.49
2018-11-28T02:36:36.686Z,66.70
2018-11-28T02:39:07.865Z,66.64
2018-11-28T02:41:35.569Z,66.70
2018-11-28T02:44:03.341Z,66.67
2018-11-28T02:46:31.336Z,66.54
2018-11-28T02:48:58.808Z,66.87
2018-11-28T02:51:26.292Z,66.91
2018-11-28T02:53:53.884Z,66.94
2018-11-28T02:56:21.445Z,66.42
2018-11-28T02:58:49.020Z,66.30
2018-11-28T03:01:16.497Z,66.68
2018-11-28T03:03:44.002Z,66.84
2018-11-28T03:06:11.537Z,66.51
2018-11-28T03:08:39.059Z,66.93
2018-11-28T03:11:06.559Z,66.86
2018-11-28T03:13:34.081Z,66.36
2018-11-28T03:16:09.944Z,66.63
2018-11-28T03:18:37.783Z,66.64
2018-11-28T03:21:05.979Z,66.67
2018-11-28T03:23:33.510Z,66.24
2018-11-28T03:26:01.038Z,66.74
2018-11-28T03:28:28.506Z,66.76
2018-11-28T03:30:56.016Z,66.80
2018-11-28T03:33:23.552Z,66.46
2018-11-28T03:35:51.055Z,66.81
2018-11-28T03:38:19.428Z,66.41
2018-11-28T03:40:46.906Z,66.97
2018-11-28T03:43:14.573Z,66.40
2018-11-28T03:45:41.997Z,66.39
2018-11-28T03:48:09.497Z,67.03
2018-11-28T03:50:36.951Z,66.47
2018-11-28T03:53:04.980Z,66.62
2018-11-28T03:55:32.520Z,66.69
2018-11-28T03:58:00.056Z,67.09
2018-11-28T04:00:27.585Z,66.67
2018-11-28T04:02:55.084Z,66.43
2018-11-28T04:05:22.619Z,66.41
2018-11-28T04:07:50.090Z,66.72
2018-11-28T04:10:17.675Z,66.71
2018-11-28T04:12:45.432Z,66.75
2018-11-28T04:15:21.811Z,66.20
2018-11-28T04:17:49.376Z,66.63
2018-11-28T04:20:18.828Z,67.01
2018-11-28T04:22:46.455Z,66.57
2018-11-28T04:25:14.773Z,66.51
2018-11-28T04:27:42.274Z,66.47
2018-11-28T04:30:18.281Z,66.59
2018-11-28T04:32:46.241Z,66.44
2018-11-28T04:35:14.262Z,66.38
2018-11-28T04:37:42.281Z,66.83
2018-11-28T04:40:11.797Z,66.48
2018-11-28T04:42:39.420Z,66.61
2018-11-28T04:45:08.872Z,67.07
2018-11-28T04:47:36.414Z,66.81
2018-11-28T04:50:04.545Z,66.76
2018-11-28T04:52:32.043Z,66.95
2018-11-28T04:54:59.599Z,66.79
2018-11-28T04:57:27.098Z,66.33
2018-11-28T04:59:54.598Z,66.33
2018-11-28T05:02:22.138Z,66.72
2018-11-28T05:04:49.716Z,66.20
2018-11-28T05:07:31.503Z,66.32
2018-11-28T05:09:59.172Z,66.76
2018-11-28T05:12:26.842Z,66.48
2018-11-28T05:14:54.385Z,66.45
2018-11-28T05:17:21.997Z,66.44
2018-11-28T05:19:49.518Z,67.05
2018-11-28T05:22:17.010Z,66.55
2018-11-28T05:24:44.548Z,66.62
2018-11-28T05:27:12.031Z,67.01
2018-11-28T05:29:39.531Z,66.93
2018-11-28T05:32:07.661Z,66.42
2018-11-28T05:34:35.151Z,66.40
2018-11-28T05:37:02.805Z,66.37
2018-11-28T05:39:30.365Z,66.92
2018-11-28T05:41:57.876Z,66.57
2018-11-28T05:44:25.382Z,66.76
2018-11-28T05:46:53.151Z,67.17
2018-11-28T05:49:20.639Z,67.24
2018-11-28T05:51:48.149Z,66.83
2018-11-28T05:54:15.695Z,66.93
2018-11-28T05:56:43.233Z,66.75
2018-11-28T05:59:10.782Z,66.88
2018-11-28T06:01:38.384Z,66.26
2018-11-28T06:04:05.988Z,66.51
2018-11-28T06:06:33.600Z,66.56
2018-11-28T06:09:01.079Z,66.63
2018-11-28T06:11:28.557Z,66.50
2018-11-28T06:13:56.024Z,66.23
2018-11-28T06:16:23.479Z,66.27
2018-11-28T06:18:50.983Z,66.99
2018-11-28T06:21:18.505Z,66.60
2018-11-28T06:23:45.988Z,66.93
2018-11-28T06:26:13.476Z,66.29
2018-11-28T06:28:40.925Z,66.22
2018-11-28T06:31:08.392Z,66.28
2018-11-28T06:33:36.064Z,66.70
2018-11-28T06:36:03.614Z,66.72
2018-11-28T06:38:31.125Z,66.68
2018-11-28T06:40:58.622Z,66.78
2018-11-28T06:43:26.090Z,66.64
2018-11-28T06:45:59.174Z,66.55
2018-11-28T06:48:26.876Z,66.43
2018-11-28T06:50:54.421Z,66.47
2018-11-28T06:53:22.030Z,66.50
2018-11-28T06:55:49.554Z,66.54
2018-11-28T06:58:17.019Z,66.18
2018-11-28T07:00:44.556Z,66.62
2018-11-28T07:03:12.111Z,66.52
2018-11-28T07:05:39.636Z,66.27
2018-11-28T07:08:07.107Z,66.55
2018-11-28T07:10:34.652Z,66.42
2018-11-28T07:13:02.165Z,67.03
2018-11-28T07:15:29.632Z,66.75
2018-11-28T07:18:07.244Z,66.77
2018-11-28T07:20:34.824Z,66.96
2018-11-28T07:23:02.324Z,66.57
2018-11-28T07:25:29.779Z,66.32
2018-11-28T07:27:57.340Z,66.81
2018-11-28T07:30:24.824Z,66.99
2018-11-28T07:32:54.016Z,66.65
2018-11-28T07:35:21.598Z,66.69
2018-11-28T07:37:49.076Z,66.61
2018-11-28T07:40:18.773Z,66.32
2018-11-28T07:42:48.439Z,66.44
2018-11-28T07:45:15.989Z,66.90
2018-11-28T07:47:43.495Z,67.23
2018-11-28T07:50:11.235Z,66.35
2018-11-28T07:52:38.763Z,67.09
2018-11-28T07:55:08.371Z,66.71
2018-11-28T07:57:35.814Z,66.97
2018-11-28T08:00:04.273Z,66.50
2018-11-28T08:02:31.758Z,66.66
2018-11-28T08:04:59.294Z,66.70
2018-11-28T08:07:26.744Z,67.00
2018-11-28T08:09:54.238Z,66.75
2018-11-28T08:12:21.781Z,66.68
2018-11-28T08:14:49.326Z,66.85
2018-11-28T08:17:16.860Z,66.62
2018-11-28T08:19:44.334Z,66.15
2018-11-28T08:22:11.830Z,66.26
2018-11-28T08:24:39.436Z,66.24
2018-11-28T08:27:06.947Z,66.44
2018-11-28T08:29:34.408Z,66.57
2018-11-28T08:32:02.000Z,66.28
2018-11-28T08:34:29.543Z,66.56
2018-11-28T08:36:57.042Z,66.75
2018-11-28T08:39:24.528Z,66.87
2018-11-28T08:41:52.032Z,66.92
2018-11-28T08:44:19.532Z,66.74
2018-11-28T08:46:47.097Z,66.40
2018-11-28T08:49:14.594Z,66.19
2018-11-28T08:51:42.305Z,66.42
2018-11-28T08:54:09.760Z,66.75
2018-11-28T08:56:37.215Z,66.41
2018-11-28T08:59:04.942Z,66.70
2018-11-28T09:01:32.446Z,66.23
2018-11-28T09:03:59.938Z,66.82
2018-11-28T09:06:27.464Z,66.52
2018-11-28T09:08:55.005Z,67.07
2018-11-28T09:11:22.481Z,66.34
2018-11-28T09:13:49.988Z,66.71
2018-11-28T09:16:17.468Z,66.81
2018-11-28T09:18:44.911Z,66.74
2018-11-28T09:21:12.418Z,66.53
2018-11-28T09:23:39.969Z,66.73
2018-11-28T09:26:07.448Z,66.33
2018-11-28T09:28:35.099Z,66.62
2018-11-28T09:31:02.574Z,66.53
2018-11-28T09:33:30.023Z,66.62
2018-11-28T09:35:57.524Z,66.65
2018-11-28T09:38:25.023Z,66.26
2018-11-28T09:40:52.561Z,66.64
2018-11-28T09:43:20.023Z,66.95
2018-11-28T09:45:47.585Z,66.60
2018-11-28T09:48:15.064Z,66.54
2018-11-28T09:50:42.575Z,66.91
2018-11-28T09:53:10.222Z,66.99
2018-11-28T09:55:37.670Z,66.90
2018-11-28T09:58:05.414Z,66.73
2018-11-28T10:00:32.964Z,66.52
2018-11-28T10:03:00.794Z,66.43
2018-11-28T10:05:31.122Z,66.94
2018-11-28T10:07:58.734Z,66.70
2018-11-28T10:10:26.302Z,66.44
2018-11-28T10:12:53.766Z,66.72
2018-11-28T10:15:22.251Z,66.94
2018-11-28T10:17:49.837Z,66.90
2018-11-28T10:20:18.038Z,66.80
2018-11-28T10:22:45.912Z,66.41
2018-11-28T10:25:18.158Z,66.88
2018-11-28T10:27:47.824Z,66.33
2018-11-28T10:30:20.395Z,66.37
2018-11-28T10:32:48.408Z,67.13
2018-11-28T10:35:15.944Z,67.08
2018-11-28T10:37:43.400Z,66.83
2018-11-28T10:40:13.306Z,66.49
2018-11-28T10:42:40.886Z,66.98
2018-11-28T10:45:09.917Z,66.88
2018-11-28T10:47:37.444Z,66.88
2018-11-28T10:50:06.356Z,67.11
2018-11-28T10:52:33.878Z,66.79
2018-11-28T10:55:01.599Z,66.56
2018-11-28T10:57:29.126Z,66.67
2018-11-28T10:59:56.596Z,66.61
2018-11-28T11:02:29.652Z,66.95
2018-11-28T11:05:02.786Z,67.15
2018-11-28T11:07:35.838Z,67.00
2018-11-28T11:10:09.534Z,66.82
2018-11-28T11:12:42.490Z,66.99
2018-11-28T11:15:10.026Z,67.18
2018-11-28T11:17:37.559Z,66.72
2018-11-28T11:20:05.589Z,67.16
2018-11-28T11:22:33.183Z,67.12
2018-11-28T11:25:00.707Z,66.97
2018-11-28T11:27:28.204Z,67.31
2018-11-28T11:29:55.740Z,67.33
2018-11-28T11:32:23.324Z,67.15
2018-11-28T11:34:50.808Z,67.12
2018-11-28T11:37:18.316Z,66.81
2018-11-28T11:39:45.815Z,67.18
2018-11-28T11:42:13.377Z,66.95
2018-11-28T11:44:40.837Z,67.25
2018-11-28T11:47:08.433Z,67.00
2018-11-28T11:49:35.951Z,67.49
2018-11-28T11:52:03.432Z,67.12
2018-11-28T11:54:31.349Z,67.12
2018-11-28T11:56:58.900Z,67.32
2018-11-28T11:59:26.341Z,67.64
2018-11-28T12:01:54.835Z,67.45
2018-11-28T12:04:21.437Z,67.44
2018-11-28T12:06:49.006Z,67.71
2018-11-28T12:09:16.497Z,67.64
2018-11-28T12:11:44.003Z,67.74
2018-11-28T12:14:11.511Z,67.53
2018-11-28T12:16:39.046Z,67.47
2018-11-28T12:19:06.641Z,67.67
2018-11-28T12:21:34.297Z,67.50
2018-11-28T12:24:01.759Z,68.02
2018-11-28T12:26:29.323Z,67.88
2018-11-28T12:28:56.857Z,68.05
2018-11-28T12:31:24.411Z,67.93
2018-11-28T12:33:51.960Z,67.69
2018-11-28T12:36:19.493Z,68.20
2018-11-28T12:38:47.043Z,67.84
2018-11-28T12:41:14.536Z,67.88
2018-11-28T12:43:42.048Z,67.93
2018-11-28T12:46:09.603Z,68.12
2018-11-28T12:48:37.075Z,68.23
2018-11-28T12:51:05.096Z,68.50
2018-11-28T12:53:32.606Z,68.23
2018-11-28T12:56:00.070Z,68.22
2018-11-28T12:58:27.860Z,68.64
2018-11-28T13:00:55.393Z,68.42
2018-11-28T13:03:22.871Z,68.57
2018-11-28T13:05:50.513Z,68.87
2018-11-28T13:08:18.015Z,68.48
2018-11-28T13:10:45.595Z,68.88
2018-11-28T13:13:13.291Z,68.89
2018-11-28T13:15:40.835Z,68.58
2018-11-28T13:18:09.199Z,69.02
2018-11-28T13:20:37.236Z,68.96
2018-11-28T13:23:05.131Z,68.75
2018-11-28T13:25:32.624Z,69.31
2018-11-28T13:28:00.447Z,68.71
2018-11-28T13:30:28.087Z,68.84
2018-11-28T13:32:55.668Z,69.18
2018-11-28T13:35:25.158Z,68.91
2018-11-28T13:37:53.871Z,69.18
2018-11-28T13:40:21.368Z,69.02
2018-11-28T13:42:49.160Z,69.06
2018-11-28T13:45:17.747Z,69.03
2018-11-28T13:47:46.376Z,68.91
2018-11-28T13:50:14.248Z,69.30
2018-11-28T13:52:41.743Z,68.93
2018-11-28T13:57:42.253Z,69.11
2018-11-28T14:00:09.951Z,69.05
2018-11-28T14:02:37.753Z,69.36
2018-11-28T14:05:07.732Z,69.44
2018-11-28T14:07:35.250Z,69.36
2018-11-28T14:10:03.080Z,69.47
2018-11-28T14:12:30.824Z,69.35
2018-11-28T14:14:58.376Z,68.96
2018-11-28T14:17:25.860Z,69.14
2018-11-28T14:19:53.573Z,69.36
2018-11-28T14:22:21.114Z,69.10
2018-11-28T14:24:48.650Z,68.99
2018-11-28T14:27:16.260Z,69.50
2018-11-28T14:29:43.843Z,69.07
2018-11-28T14:32:11.361Z,69.28
2018-11-28T14:34:39.023Z,69.64
2018-11-28T14:37:06.799Z,69.60
2018-11-28T14:39:34.337Z,69.67
2018-11-28T14:42:02.152Z,69.27
2018-11-28T14:44:29.681Z,69.51
2018-11-28T14:46:57.239Z,69.51
2018-11-28T14:49:25.008Z,69.74
2018-11-28T14:51:52.557Z,69.47
2018-11-28T14:54:20.027Z,69.64
2018-11-28T14:56:47.643Z,69.23
2018-11-28T14:59:15.163Z,69.66
2018-11-28T15:01:42.646Z,69.71
2018-11-28T15:04:10.381Z,69.76
2018-11-28T15:06:48.664Z,69.75
2018-11-28T15:09:21.895Z,69.64
2018-11-28T15:11:49.426Z,69.92
2018-11-28T15:14:16.922Z,69.77
2018-11-28T15:16:44.728Z,69.70
2018-11-28T15:19:12.281Z,69.74
2018-11-28T15:21:39.838Z,69.67
2018-11-28T15:24:07.572Z,69.47
2018-11-28T15:26:35.156Z,69.41
2018-11-28T15:29:02.747Z,69.47
2018-11-28T15:31:30.488Z,69.39
2018-11-28T15:33:58.029Z,69.95
2018-11-28T15:36:25.570Z,69.93
2018-11-28T15:38:53.316Z,69.40
2018-11-28T15:41:20.787Z,69.52
2018-11-28T15:43:48.255Z,69.46
2018-11-28T15:46:15.890Z,69.48
2018-11-28T15:48:43.373Z,69.75
2018-11-28T15:51:10.985Z,69.51
2018-11-28T15:53:38.794Z,69.17
2018-11-28T15:56:06.425Z,69.32
2018-11-28T15:58:33.942Z,69.61
2018-11-28T16:01:01.698Z,69.19
2018-11-28T16:03:29.256Z,69.45
2018-11-28T16:05:56.815Z,69.33
2018-11-28T16:08:24.478Z,69.67
2018-11-28T16:10:52.238Z,69.11
2018-11-28T16:13:19.755Z,69.40
2018-11-28T16:15:50.549Z,69.67
2018-11-28T16:18:18.108Z,69.72
2018-11-28T16:20:45.693Z,69.34
2018-11-28T16:23:13.493Z,69.25
2018-11-28T16:25:41.006Z,69.58
2018-11-28T16:28:08.688Z,69.21
2018-11-28T16:30:36.358Z,69.66
2018-11-28T16:33:03.859Z,69.44
2018-11-28T16:35:31.365Z,69.53
2018-11-28T16:37:59.142Z,69.72
2018-11-28T16:40:26.698Z,69.53
2018-11-28T16:42:54.291Z,69.54
2018-11-28T16:45:21.974Z,69.71
2018-11-28T16:47:49.528Z,69.22
2018-11-28T16:50:17.452Z,69.46
2018-11-28T16:52:45.314Z,69.08
2018-11-28T16:55:13.766Z,69.53
2018-11-28T16:57:42.397Z,69.48
2018-11-28T17:00:14.123Z,69.34
2018-11-28T17:02:41.628Z,69.46
2018-11-28T17:05:13.342Z,69.25
2018-11-28T17:07:41.385Z,69.24
2018-11-28T17:10:11.229Z,69.43
2018-11-28T17:12:38.724Z,69.38
2018-11-28T17:15:08.966Z,69.46
2018-11-28T17:17:36.525Z,69.16
2018-11-28T17:20:06.817Z,69.66
2018-11-28T17:22:34.443Z,69.48
2018-11-28T17:25:01.956Z,69.18
2018-11-28T17:27:29.475Z,69.65
2018-11-28T17:29:57.299Z,69.46
2018-11-28T17:32:24.831Z,69.67
2018-11-28T17:34:52.387Z,69.18
2018-11-28T17:37:20.148Z,69.19
2018-11-28T17:39:47.641Z,69.23
2018-11-28T17:42:15.078Z,69.50
2018-11-28T17:44:42.871Z,69.35
2018-11-28T17:47:10.380Z,69.34
2018-11-28T17:49:37.923Z,69.69
2018-11-28T17:52:05.748Z,69.37
2018-11-28T17:54:33.232Z,69.35
2018-11-28T17:57:00.708Z,69.86
2018-11-28T17:59:28.458Z,69.78
2018-11-28T18:01:55.973Z,69.51
2018-11-28T18:04:23.471Z,69.53
2018-11-28T18:06:51.263Z,69.98
2018-11-28T18:09:18.749Z,69.44
2018-11-28T18:11:46.260Z,69.57
2018-11-28T18:14:13.956Z,70.00
2018-11-28T18:16:41.461Z,69.51
2018-11-28T18:19:08.940Z,69.58
2018-11-28T18:21:36.651Z,69.53
2018-11-28T18:24:04.262Z,69.87
2018-11-28T18:26:32.032Z,69.53
2018-11-28T18:28:59.828Z,69.80
2018-11-28T18:31:27.290Z,70.02
2018-11-28T18:33:54.791Z,70.15
2018-11-28T18:36:22.676Z,69.74
2018-11-28T18:38:50.128Z,69.64
2018-11-28T18:41:17.634Z,70.11
2018-11-28T18:43:45.398Z,70.20
2018-11-28T18:46:12.962Z,70.42
2018-11-28T18:48:40.465Z,69.94
2018-11-28T18:51:08.200Z,70.20
2018-11-28T18:53:35.705Z,69.89
2018-11-28T18:56:03.222Z,69.87
2018-11-28T18:58:30.944Z,70.10
2018-11-28T19:00:58.452Z,70.15
2018-11-28T19:03:26.036Z,69.92
2018-11-28T19:05:53.686Z,70.10
2018-11-28T19:08:21.180Z,70.08
2018-11-28T19:10:48.782Z,70.23
2018-11-28T19:13:16.326Z,70.21
2018-11-28T19:15:43.812Z,70.20
2018-11-28T19:18:11.297Z,70.25
2018-11-28T19:20:39.076Z,69.95
2018-11-28T19:23:06.657Z,70.26
2018-11-28T19:25:34.138Z,70.33
2018-11-28T19:28:01.762Z,70.48
2018-11-28T19:30:36.105Z,70.21
2018-11-28T19:33:04.021Z,70.18
2018-11-28T19:35:31.535Z,70.33
2018-11-28T19:37:59.379Z,70.25
2018-11-28T19:40:59.532Z,70.39
2018-11-28T19:43:27.050Z,70.50
2018-11-28T19:45:54.614Z,70.18
2018-11-28T19:48:22.397Z,70.59
2018-11-28T19:50:49.880Z,70.15
2018-11-28T19:53:17.388Z,70.05
2018-11-28T19:55:45.048Z,70.53
2018-11-28T19:58:12.508Z,70.54
2018-11-28T20:00:43.336Z,70.33
2018-11-28T20:03:11.014Z,70.19
2018-11-28T20:05:38.482Z,70.72
2018-11-28T20:08:06.979Z,70.58
2018-11-28T20:10:34.650Z,70.22
2018-11-28T20:13:02.192Z,70.40
2018-11-28T20:15:30.438Z,70.25
2018-11-28T20:17:58.267Z,70.70
2018-11-28T20:20:25.817Z,70.50
2018-11-28T20:22:53.329Z,70.53
2018-11-28T20:25:22.213Z,70.35
2018-11-28T20:27:59.229Z,70.61
2018-11-28T20:30:44.920Z,70.38
2018-11-28T20:33:13.645Z,70.23
2018-11-28T20:35:42.093Z,70.18
2018-11-28T20:38:13.070Z,70.16
2018-11-28T20:40:40.565Z,70.22
2018-11-28T20:43:08.105Z,70.19
2018-11-28T20:45:35.737Z,70.23
2018-11-28T20:48:03.297Z,70.13
2018-11-28T20:50:32.419Z,70.44
2018-11-28T20:53:02.832Z,70.35
2018-11-28T20:55:30.277Z,70.19
2018-11-28T20:57:57.780Z,70.29
2018-11-28T21:00:25.625Z,70.30
2018-11-28T21:02:53.152Z,70.26
2018-11-28T21:05:20.673Z,70.38
2018-11-28T21:07:48.339Z,70.36
2018-11-28T21:10:21.712Z,70.30
2018-11-28T21:12:49.455Z,70.35
2018-11-28T21:15:17.025Z,70.20
2018-11-28T21:17:44.995Z,70.31
2018-11-28T21:20:15.483Z,70.35
2018-11-28T21:22:43.711Z,70.26
2018-11-28T21:25:11.802Z,70.22
2018-11-28T21:27:39.517Z,70.20
2018-11-28T21:30:11.147Z,70.31
2018-11-28T21:32:38.747Z,70.38
2018-11-28T21:35:10.427Z,70.19
2018-11-28T21:37:38.047Z,70.31
2018-11-28T21:40:05.749Z,70.23
2018-11-28T21:42:33.388Z,70.10
2018-11-28T21:45:00.891Z,70.79
2018-11-28T21:47:28.336Z,70.52
2018-11-28T21:49:55.990Z,70.51
2018-11-28T21:52:23.412Z,70.53
2018-11-28T21:54:50.947Z,70.26
2018-11-28T21:57:18.614Z,70.22
2018-11-28T21:59:46.095Z,70.30
2018-11-28T22:02:13.577Z,70.21
2018-11-28T22:04:47.798Z,70.19
2018-11-28T22:07:15.230Z,70.06
2018-11-28T22:09:42.727Z,69.89
2018-11-28T22:12:10.344Z,70.09
2018-11-28T22:14:37.793Z,70.18
2018-11-28T22:17:05.286Z,69.92
2018-11-28T22:19:32.848Z,69.95
2018-11-28T22:22:00.301Z,70.07
2018-11-28T22:24:27.741Z,69.84
2018-11-28T22:26:55.458Z,69.88
2018-11-28T22:29:22.949Z,69.83
2018-11-28T22:31:50.485Z,69.70
2018-11-28T22:34:18.252Z,69.55
2018-11-28T22:36:45.711Z,69.74
2018-11-28T22:39:13.179Z,69.62
2018-11-28T22:41:40.746Z,69.57
2018-11-28T22:44:08.283Z,69.66
2018-11-28T22:46:35.777Z,69.60
2018-11-28T22:49:03.424Z,69.56
2018-11-28T22:51:30.851Z,69.57
2018-11-28T22:53:58.358Z,69.47
2018-11-28T22:56:26.018Z,69.54
2018-11-28T22:58:53.539Z,69.58
2018-11-28T23:01:26.744Z,69.41
2018-11-28T23:03:54.201Z,69.50
2018-11-28T23:06:21.771Z,69.66
2018-11-28T23:08:49.316Z,69.52
2018-11-28T23:11:16.810Z,69.52
2018-11-28T23:13:44.345Z,69.65
2018-11-28T23:16:12.122Z,69.60
2018-11-28T23:18:39.617Z,69.82
2018-11-28T23:21:07.170Z,69.75
2018-11-28T23:23:34.879Z,69.73
2018-11-28T23:26:02.349Z,69.84
2018-11-28T23:28:29.916Z,69.71
2018-11-28T23:30:57.705Z,69.90
2018-11-28T23:33:25.183Z,69.88
2018-11-28T23:35:52.707Z,69.75
2018-11-28T23:38:20.596Z,69.81
2018-11-28T23:40:48.067Z,69.85
2018-11-28T23:43:15.569Z,69.86
2018-11-28T23:45:43.356Z,69.82
2018-11-28T23:48:10.899Z,69.75
2018-11-28T23:50:38.357Z,69.82
2018-11-28T23:53:06.108Z,69.89
2018-11-28T23:55:33.574Z,69.80
2018-11-28T23:58:01.008Z,69.88
